createdAt,value
2023-01-07T00:01:15.436Z,23.80
2023-01-07T00:03:42.823Z,23.30
2023-01-07T00:06:15.154Z,22.40
2023-01-07T00:08:43.924Z,21.40
2023-01-07T00:11:22.286Z,24.60
2023-01-07T00:13:49.796Z,26.10
2023-01-07T00:16:18.520Z,33.70
2023-01-07T00:18:48.372Z,27.80
2023-01-07T00:21:16.403Z,26.20
2023-01-07T00:23:43.781Z,22.90
2023-01-07T00:26:12.845Z,23.70
2023-01-07T00:28:42.435Z,21.90
2023-01-07T00:31:11.105Z,21.40
2023-01-07T00:33:47.855Z,20.00
2023-01-07T00:36:14.803Z,17.90
2023-01-07T00:38:41.630Z,18.70
2023-01-07T00:41:09.553Z,19.10
2023-01-07T00:43:36.403Z,20.60
2023-01-07T00:46:03.293Z,17.70
2023-01-07T00:48:30.232Z,18.00
2023-01-07T00:50:57.156Z,17.00
2023-01-07T00:53:25.227Z,17.90
2023-01-07T00:55:52.280Z,19.30
2023-01-07T00:58:27.052Z,22.20
2023-01-07T01:00:57.883Z,21.90
2023-01-07T01:03:25.422Z,19.30
2023-01-07T01:05:52.414Z,21.10
2023-01-07T01:08:24.872Z,17.10
2023-01-07T01:10:51.707Z,20.80
2023-01-07T01:13:26.393Z,18.60
2023-01-07T01:15:55.331Z,19.30
2023-01-07T01:18:25.044Z,19.90
2023-01-07T01:20:52.016Z,20.60
2023-01-07T01:23:18.937Z,18.20
2023-01-07T01:25:48.321Z,20.90
2023-01-07T01:28:15.347Z,18.10
2023-01-07T01:30:44.543Z,18.50
2023-01-07T01:33:12.833Z,18.70
2023-01-07T01:35:41.177Z,19.50
2023-01-07T01:38:11.354Z,17.10
2023-01-07T01:40:38.332Z,18.00
2023-01-07T01:43:05.503Z,17.70
2023-01-07T01:45:32.637Z,17.10
2023-01-07T01:48:08.892Z,15.40
2023-01-07T01:50:39.061Z,16.70
2023-01-07T01:53:10.405Z,18.40
2023-01-07T01:56:09.774Z,17.40
2023-01-07T01:58:39.353Z,16.90
2023-01-07T02:01:06.656Z,17.20
2023-01-07T02:03:37.107Z,18.00
2023-01-07T02:06:04.281Z,19.10
2023-01-07T02:08:31.264Z,23.10
2023-01-07T02:11:45.844Z,24.80
2023-01-07T02:14:31.464Z,25.80
2023-01-07T02:17:12.740Z,24.50
2023-01-07T02:20:01.392Z,30.80
2023-01-07T02:22:31.333Z,27.50
2023-01-07T02:25:18.868Z,30.80
2023-01-07T02:28:00.193Z,32.10
2023-01-07T02:30:50.813Z,27.00
2023-01-07T02:33:56.265Z,28.30
2023-01-07T02:36:47.591Z,28.80
2023-01-07T02:39:24.147Z,24.00
2023-01-07T02:41:59.073Z,25.00
2023-01-07T02:44:49.221Z,27.10
2023-01-07T02:47:21.989Z,26.70
2023-01-07T02:49:49.062Z,34.10
2023-01-07T02:52:23.239Z,33.10
2023-01-07T02:55:04.819Z,25.20
2023-01-07T02:57:57.001Z,24.90
2023-01-07T03:00:46.168Z,34.40
2023-01-07T03:03:13.123Z,44.60
2023-01-07T03:05:49.160Z,41.30
2023-01-07T03:08:23.739Z,32.70
2023-01-07T03:11:03.185Z,28.10
2023-01-07T03:13:43.647Z,55.10
2023-01-07T03:16:14.091Z,36.60
2023-01-07T03:18:44.282Z,41.60
2023-01-07T03:21:13.784Z,34.20
2023-01-07T03:23:44.157Z,32.00
2023-01-07T03:26:11.140Z,25.70
2023-01-07T03:28:40.999Z,19.80
2023-01-07T03:31:10.666Z,19.70
2023-01-07T03:33:56.961Z,20.40
2023-01-07T03:36:26.076Z,19.60
2023-01-07T03:38:54.338Z,19.10
2023-01-07T03:41:39.966Z,21.20
2023-01-07T03:44:07.465Z,19.00
2023-01-07T03:46:34.720Z,23.90
2023-01-07T03:49:01.629Z,21.20
2023-01-07T03:51:28.572Z,19.80
2023-01-07T03:53:55.954Z,29.20
2023-01-07T03:56:23.513Z,28.00
2023-01-07T03:58:50.371Z,37.90
2023-01-07T04:01:17.455Z,35.30
2023-01-07T04:03:44.733Z,33.00
2023-01-07T04:06:14.180Z,33.40
2023-01-07T04:08:41.080Z,28.80
2023-01-07T04:11:08.037Z,26.70
2023-01-07T04:13:37.833Z,26.50
2023-01-07T04:16:05.073Z,23.90
2023-01-07T04:18:31.912Z,32.70
2023-01-07T04:22:37.599Z,37.20
2023-01-07T04:25:06.279Z,32.90
2023-01-07T04:27:36.401Z,32.40
2023-01-07T04:30:03.957Z,28.10
2023-01-07T04:32:34.508Z,26.90
2023-01-07T04:35:05.125Z,17.60
2023-01-07T04:37:32.370Z,19.20
2023-01-07T04:40:05.012Z,18.40
2023-01-07T04:42:34.671Z,18.60
2023-01-07T04:45:02.147Z,19.90
2023-01-07T04:47:29.675Z,19.90
2023-01-07T04:49:56.818Z,19.90
2023-01-07T04:52:24.072Z,20.50
2023-01-07T04:54:51.228Z,22.00
2023-01-07T04:57:18.897Z,22.60
2023-01-07T04:59:46.321Z,20.90
2023-01-07T05:02:13.550Z,21.40
2023-01-07T05:04:41.281Z,23.90
2023-01-07T05:07:11.476Z,27.10
2023-01-07T05:09:41.799Z,30.30
2023-01-07T05:12:08.780Z,26.90
2023-01-07T05:14:35.997Z,30.10
2023-01-07T05:17:03.023Z,29.70
2023-01-07T05:19:30.192Z,27.10
2023-01-07T05:21:58.923Z,29.00
2023-01-07T05:24:27.484Z,27.30
2023-01-07T05:26:55.017Z,28.20
2023-01-07T05:29:25.666Z,24.50
2023-01-07T05:31:53.216Z,25.50
2023-01-07T05:34:23.738Z,29.20
2023-01-07T05:36:53.034Z,23.70
2023-01-07T05:39:20.003Z,22.70
2023-01-07T05:41:47.198Z,25.20
2023-01-07T05:44:14.284Z,21.50
2023-01-07T05:46:41.238Z,21.00
2023-01-07T05:49:08.283Z,23.60
2023-01-07T05:51:35.638Z,23.90
2023-01-07T05:54:02.571Z,22.80
2023-01-07T05:56:29.620Z,23.20
2023-01-07T05:58:56.672Z,22.30
2023-01-07T06:01:23.580Z,25.90
2023-01-07T16:40:23.979Z,19.20
2023-01-07T16:42:51.351Z,24.10
2023-01-07T16:45:23.766Z,17.90
2023-01-07T16:48:19.728Z,24.70
2023-01-07T16:50:47.708Z,18.70
2023-01-07T16:53:32.537Z,17.70
2023-01-07T16:56:02.679Z,19.50
2023-01-07T16:58:29.646Z,17.20
2023-01-07T17:00:57.570Z,17.60
2023-01-07T17:03:24.521Z,21.60
2023-01-07T17:06:04.899Z,19.80
2023-01-07T17:08:31.870Z,27.50
2023-01-07T17:11:36.755Z,37.60
2023-01-07T17:14:03.839Z,46.70
2023-01-07T17:16:31.576Z,47.00
2023-01-07T17:19:20.988Z,55.90
2023-01-07T17:21:48.086Z,49.30
2023-01-07T17:24:27.851Z,52.00
2023-01-07T17:26:59.374Z,71.70
2023-01-07T17:29:30.323Z,76.10
2023-01-07T17:31:59.509Z,60.20
2023-01-07T17:34:29.306Z,56.90
2023-01-07T17:36:56.133Z,42.30
2023-01-07T17:39:23.088Z,44.30
2023-01-07T17:42:08.822Z,52.00
2023-01-07T17:44:38.245Z,43.20
2023-01-07T17:47:06.480Z,46.30
2023-01-07T17:49:38.023Z,41.30
2023-01-07T17:52:05.930Z,33.60
2023-01-07T17:54:36.243Z,34.90
2023-01-07T17:57:03.055Z,33.10
2023-01-07T17:59:30.655Z,32.30
2023-01-07T18:01:59.200Z,31.40
2023-01-07T18:04:27.142Z,32.70
2023-01-07T18:06:54.493Z,33.20
2023-01-07T18:09:21.702Z,38.10
2023-01-07T18:12:07.483Z,34.80
2023-01-07T18:14:34.482Z,36.70
2023-01-07T18:17:01.509Z,33.50
2023-01-07T18:19:28.495Z,36.20
2023-01-07T18:21:56.473Z,31.20
2023-01-07T18:24:23.702Z,30.20
2023-01-07T18:26:50.640Z,31.70
2023-01-07T18:29:17.598Z,33.30
2023-01-07T18:31:44.549Z,32.10
2023-01-07T18:34:12.272Z,32.80
2023-01-07T18:36:39.295Z,31.20
2023-01-07T18:39:06.351Z,28.60
2023-01-07T18:41:35.302Z,34.90
2023-01-07T18:44:03.338Z,31.20
2023-01-07T18:46:31.091Z,26.70
2023-01-07T18:48:58.209Z,28.80
2023-01-07T18:51:25.235Z,28.40
2023-01-07T18:53:52.687Z,33.00
2023-01-07T18:56:24.232Z,33.60
2023-01-07T18:59:01.070Z,32.90
2023-01-07T19:01:28.594Z,41.00
2023-01-07T19:03:58.719Z,35.20
2023-01-07T19:06:26.813Z,33.90
2023-01-07T19:08:56.660Z,34.50
2023-01-07T19:11:23.813Z,33.20
2023-01-07T19:13:50.856Z,36.30
2023-01-07T19:16:17.892Z,34.40
2023-01-07T19:18:45.218Z,39.00
2023-01-07T19:21:12.356Z,44.10
2023-01-07T19:23:39.362Z,43.10
2023-01-07T19:26:07.671Z,46.10
2023-01-07T19:28:34.722Z,44.10
2023-01-07T19:31:04.659Z,43.40
2023-01-07T19:33:31.559Z,45.60
2023-01-07T19:36:15.832Z,48.10
2023-01-07T19:38:45.426Z,45.10
2023-01-07T19:41:15.008Z,38.10
2023-01-07T19:43:41.950Z,39.50
2023-01-07T19:46:09.948Z,34.20
2023-01-07T19:48:39.355Z,36.50
2023-01-07T19:51:06.414Z,31.90
2023-01-07T19:53:33.763Z,46.40
2023-01-07T19:56:01.680Z,41.40
2023-01-07T19:58:29.253Z,42.60
2023-01-07T20:00:58.900Z,41.50
2023-01-07T20:03:26.120Z,43.70
2023-01-07T20:05:53.161Z,33.50
2023-01-07T20:08:20.317Z,30.20
2023-01-07T20:10:55.908Z,29.50
2023-01-07T20:13:22.779Z,32.10
2023-01-07T20:15:52.251Z,30.20
2023-01-07T20:18:19.602Z,27.40
2023-01-07T20:20:56.744Z,31.00
2023-01-07T20:23:23.966Z,32.50
2023-01-07T20:25:51.254Z,28.30
2023-01-07T20:28:21.802Z,29.80
2023-01-07T20:30:48.758Z,31.20
2023-01-07T20:33:15.627Z,28.30
2023-01-07T20:35:43.269Z,31.50
2023-01-07T20:38:11.653Z,20.90
2023-01-07T20:40:39.431Z,33.00
2023-01-07T20:43:06.429Z,24.00
2023-01-07T20:45:38.722Z,29.70
2023-01-07T20:48:08.340Z,22.20
2023-01-07T20:50:39.051Z,19.00
2023-01-07T20:53:06.149Z,16.50
2023-01-07T20:55:33.455Z,19.40
2023-01-07T20:58:00.478Z,16.80
2023-01-07T21:00:27.628Z,17.40
2023-01-07T21:02:54.734Z,15.60
2023-01-07T21:05:23.450Z,15.80
2023-01-07T21:07:50.703Z,16.20
2023-01-07T21:10:18.655Z,15.70
2023-01-07T21:12:46.186Z,17.40
2023-01-07T21:15:14.302Z,20.70
2023-01-07T21:17:41.580Z,18.30
2023-01-07T21:20:09.336Z,21.80
2023-01-07T21:22:38.021Z,21.40
2023-01-07T21:25:09.059Z,26.70
2023-01-07T21:27:36.392Z,25.00
2023-01-07T21:30:06.043Z,25.30
2023-01-07T21:32:34.745Z,24.80
2023-01-07T21:35:01.831Z,26.30
2023-01-07T21:37:29.402Z,24.50
2023-01-07T21:39:56.534Z,26.70
2023-01-07T21:42:23.521Z,23.60
2023-01-07T21:44:50.694Z,23.20
2023-01-07T21:47:17.649Z,28.70
2023-01-07T21:49:44.441Z,26.40
2023-01-07T21:52:11.214Z,33.80
2023-01-07T21:54:38.180Z,31.20
2023-01-07T21:57:05.053Z,36.90
2023-01-07T21:59:31.846Z,33.30
2023-01-07T22:01:59.018Z,36.10
2023-01-07T22:04:27.097Z,34.10
2023-01-07T22:06:54.030Z,39.70
2023-01-07T22:09:20.872Z,40.40
2023-01-07T22:11:50.792Z,44.80
2023-01-07T22:14:18.523Z,42.10
2023-01-07T22:16:47.514Z,41.90
2023-01-07T22:19:15.902Z,38.60
2023-01-07T22:21:45.899Z,43.00
2023-01-07T22:24:14.420Z,43.70
2023-01-07T22:26:41.406Z,47.90
2023-01-07T22:29:08.486Z,44.90
2023-01-07T22:31:36.863Z,47.00
2023-01-07T22:34:05.022Z,45.60
2023-01-07T22:36:35.093Z,37.70
2023-01-07T22:39:05.531Z,45.90
2023-01-07T22:41:32.502Z,44.40
2023-01-07T22:44:05.272Z,47.30
2023-01-07T22:46:32.135Z,41.90
2023-01-07T22:48:59.145Z,48.30
2023-01-07T22:51:37.924Z,48.20
2023-01-07T22:54:05.548Z,43.80
2023-01-07T22:56:32.846Z,42.30
2023-01-07T22:59:04.527Z,49.90
2023-01-07T23:01:32.171Z,44.60
2023-01-07T23:03:59.041Z,49.80
2023-01-07T23:06:27.027Z,46.20
2023-01-07T23:08:53.883Z,42.40
2023-01-07T23:11:39.499Z,41.40
2023-01-07T23:14:11.143Z,40.80
2023-01-07T23:16:40.393Z,47.50
2023-01-07T23:19:07.476Z,48.80
2023-01-07T23:21:34.578Z,43.50
2023-01-07T23:24:01.521Z,46.60
2023-01-07T23:26:28.441Z,46.70
2023-01-07T23:28:55.346Z,46.40
2023-01-07T23:31:22.222Z,45.90
2023-01-07T23:33:49.081Z,48.70
2023-01-07T23:36:15.951Z,42.20
2023-01-07T23:38:42.884Z,39.00
2023-01-07T23:41:10.687Z,37.50
2023-01-07T23:43:37.725Z,42.80
2023-01-07T23:46:06.031Z,42.90
2023-01-07T23:48:33.752Z,47.10
2023-01-07T23:51:10.592Z,45.80
2023-01-07T23:53:37.757Z,41.00
2023-01-07T23:56:04.911Z,41.30
2023-01-07T23:58:32.267Z,38.70
